sensor_id;sensor_type;location;lat;lon;timestamp;temperature;humidity
11214;DHT22;5664;48.606;13.456;2023-10-31T00:01:10;21.10;77.70
11214;DHT22;5664;48.606;13.456;2023-10-31T00:03:36;21.10;77.80
11214;DHT22;5664;48.606;13.456;2023-10-31T00:06:01;21.10;77.80
11214;DHT22;5664;48.606;13.456;2023-10-31T00:08:27;21.10;77.80
11214;DHT22;5664;48.606;13.456;2023-10-31T00:10:52;21.00;77.70
11214;DHT22;5664;48.606;13.456;2023-10-31T00:13:18;21.00;77.80
11214;DHT22;5664;48.606;13.456;2023-10-31T00:15:43;21.00;77.80
11214;DHT22;5664;48.606;13.456;2023-10-31T00:18:09;21.00;77.80
11214;DHT22;5664;48.606;13.456;2023-10-31T00:20:34;21.00;77.80
11214;DHT22;5664;48.606;13.456;2023-10-31T00:23:00;21.00;77.70
11214;DHT22;5664;48.606;13.456;2023-10-31T00:25:25;21.00;77.80
11214;DHT22;5664;48.606;13.456;2023-10-31T00:27:51;21.00;77.80
11214;DHT22;5664;48.606;13.456;2023-10-31T00:30:16;21.00;77.80
11214;DHT22;5664;48.606;13.456;2023-10-31T00:32:42;21.00;77.80
11214;DHT22;5664;48.606;13.456;2023-10-31T00:35:07;20.90;77.70
11214;DHT22;5664;48.606;13.456;2023-10-31T00:37:33;20.90;77.70
11214;DHT22;5664;48.606;13.456;2023-10-31T00:39:58;20.90;77.70
11214;DHT22;5664;48.606;13.456;2023-10-31T00:42:24;20.90;77.70
11214;DHT22;5664;48.606;13.456;2023-10-31T00:44:49;20.90;77.70
11214;DHT22;5664;48.606;13.456;2023-10-31T00:47:15;20.90;77.70
11214;DHT22;5664;48.606;13.456;2023-10-31T00:49:40;20.90;77.70
11214;DHT22;5664;48.606;13.456;2023-10-31T00:52:06;20.90;77.80
11214;DHT22;5664;48.606;13.456;2023-10-31T00:54:31;20.90;77.70
11214;DHT22;5664;48.606;13.456;2023-10-31T00:56:57;20.80;77.80
11214;DHT22;5664;48.606;13.456;2023-10-31T00:59:22;20.90;77.80
11214;DHT22;5664;48.606;13.456;2023-10-31T01:01:48;20.80;77.70
11214;DHT22;5664;48.606;13.456;2023-10-31T01:04:13;20.80;77.70
11214;DHT22;5664;48.606;13.456;2023-10-31T01:06:42;20.80;77.70
11214;DHT22;5664;48.606;13.456;2023-10-31T01:09:07;20.80;77.70
11214;DHT22;5664;48.606;13.456;2023-10-31T01:11:33;20.80;77.70
11214;DHT22;5664;48.606;13.456;2023-10-31T01:13:59;20.80;77.60
11214;DHT22;5664;48.606;13.456;2023-10-31T01:16:24;20.80;77.70
11214;DHT22;5664;48.606;13.456;2023-10-31T01:18:50;20.80;77.70
11214;DHT22;5664;48.606;13.456;2023-10-31T01:21:15;20.70;77.60
11214;DHT22;5664;48.606;13.456;2023-10-31T01:23:41;20.70;77.70
11214;DHT22;5664;48.606;13.456;2023-10-31T01:26:06;20.70;77.70
11214;DHT22;5664;48.606;13.456;2023-10-31T01:28:32;20.70;77.70
11214;DHT22;5664;48.606;13.456;2023-10-31T01:30:57;20.70;77.70
11214;DHT22;5664;48.606;13.456;2023-10-31T01:33:22;20.70;77.70
11214;DHT22;5664;48.606;13.456;2023-10-31T01:35:48;20.70;77.70
11214;DHT22;5664;48.606;13.456;2023-10-31T01:38:13;20.70;77.70
11214;DHT22;5664;48.606;13.456;2023-10-31T01:40:39;20.70;77.70
11214;DHT22;5664;48.606;13.456;2023-10-31T01:43:05;20.70;77.70
11214;DHT22;5664;48.606;13.456;2023-10-31T01:45:30;20.70;77.70
11214;DHT22;5664;48.606;13.456;2023-10-31T01:47:56;20.60;77.60
11214;DHT22;5664;48.606;13.456;2023-10-31T01:50:21;20.60;77.70
11214;DHT22;5664;48.606;13.456;2023-10-31T01:52:47;20.60;77.70
11214;DHT22;5664;48.606;13.456;2023-10-31T01:55:12;20.60;77.70
11214;DHT22;5664;48.606;13.456;2023-10-31T01:57:38;20.60;77.70
11214;DHT22;5664;48.606;13.456;2023-10-31T02:00:04;20.60;78.10
11214;DHT22;5664;48.606;13.456;2023-10-31T02:02:30;20.50;77.70
11214;DHT22;5664;48.606;13.456;2023-10-31T02:04:58;20.60;77.70
11214;DHT22;5664;48.606;13.456;2023-10-31T02:07:24;20.50;77.70
11214;DHT22;5664;48.606;13.456;2023-10-31T02:09:49;20.50;77.70
11214;DHT22;5664;48.606;13.456;2023-10-31T02:12:31;20.50;77.70
11214;DHT22;5664;48.606;13.456;2023-10-31T02:14:56;20.50;78.50
11214;DHT22;5664;48.606;13.456;2023-10-31T02:17:22;20.50;77.80
11214;DHT22;5664;48.606;13.456;2023-10-31T02:19:48;20.50;77.80
11214;DHT22;5664;48.606;13.456;2023-10-31T02:22:13;20.40;77.80
11214;DHT22;5664;48.606;13.456;2023-10-31T02:24:42;20.40;77.80
11214;DHT22;5664;48.606;13.456;2023-10-31T02:27:07;20.40;77.80
11214;DHT22;5664;48.606;13.456;2023-10-31T02:29:33;20.40;77.80
11214;DHT22;5664;48.606;13.456;2023-10-31T02:31:58;20.50;77.90
11214;DHT22;5664;48.606;13.456;2023-10-31T02:34:23;20.40;77.80
11214;DHT22;5664;48.606;13.456;2023-10-31T02:36:51;20.40;77.90
11214;DHT22;5664;48.606;13.456;2023-10-31T02:39:17;20.40;77.90
11214;DHT22;5664;48.606;13.456;2023-10-31T02:41:42;20.40;77.90
11214;DHT22;5664;48.606;13.456;2023-10-31T02:44:08;20.40;77.90
11214;DHT22;5664;48.606;13.456;2023-10-31T02:46:37;20.40;77.90
11214;DHT22;5664;48.606;13.456;2023-10-31T02:49:03;20.30;77.80
11214;DHT22;5664;48.606;13.456;2023-10-31T02:51:28;20.40;78.00
11214;DHT22;5664;48.606;13.456;2023-10-31T02:53:54;20.30;77.90
11214;DHT22;5664;48.606;13.456;2023-10-31T02:56:19;20.30;77.90
11214;DHT22;5664;48.606;13.456;2023-10-31T02:58:44;20.30;77.90
11214;DHT22;5664;48.606;13.456;2023-10-31T03:01:11;20.30;77.90
11214;DHT22;5664;48.606;13.456;2023-10-31T03:03:36;20.00;77.70
11214;DHT22;5664;48.606;13.456;2023-10-31T03:06:02;20.30;78.00
11214;DHT22;5664;48.606;13.456;2023-10-31T03:08:27;20.30;78.00
11214;DHT22;5664;48.606;13.456;2023-10-31T03:10:53;20.30;78.00
11214;DHT22;5664;48.606;13.456;2023-10-31T03:13:19;20.30;77.90
11214;DHT22;5664;48.606;13.456;2023-10-31T03:15:47;20.20;77.90
11214;DHT22;5664;48.606;13.456;2023-10-31T03:18:13;20.30;77.90
11214;DHT22;5664;48.606;13.456;2023-10-31T03:20:40;20.20;77.80
11214;DHT22;5664;48.606;13.456;2023-10-31T03:23:05;20.20;77.80
11214;DHT22;5664;48.606;13.456;2023-10-31T03:25:31;20.20;77.90
11214;DHT22;5664;48.606;13.456;2023-10-31T03:27:56;20.20;77.80
11214;DHT22;5664;48.606;13.456;2023-10-31T03:30:22;20.20;77.80
11214;DHT22;5664;48.606;13.456;2023-10-31T03:32:47;20.20;77.80
11214;DHT22;5664;48.606;13.456;2023-10-31T03:35:13;20.20;77.80
11214;DHT22;5664;48.606;13.456;2023-10-31T03:37:38;20.10;77.70
11214;DHT22;5664;48.606;13.456;2023-10-31T03:40:08;20.20;77.80
11214;DHT22;5664;48.606;13.456;2023-10-31T03:42:33;20.10;77.70
11214;DHT22;5664;48.606;13.456;2023-10-31T03:44:58;20.10;77.70
11214;DHT22;5664;48.606;13.456;2023-10-31T03:47:24;20.10;77.70
11214;DHT22;5664;48.606;13.456;2023-10-31T03:49:49;20.10;77.70
11214;DHT22;5664;48.606;13.456;2023-10-31T03:52:15;20.10;77.70
11214;DHT22;5664;48.606;13.456;2023-10-31T03:54:40;20.10;78.50
11214;DHT22;5664;48.606;13.456;2023-10-31T03:57:06;20.10;77.70
11214;DHT22;5664;48.606;13.456;2023-10-31T03:59:31;20.00;77.60
11214;DHT22;5664;48.606;13.456;2023-10-31T04:01:57;20.10;77.60
11214;DHT22;5664;48.606;13.456;2023-10-31T04:04:22;20.00;77.50
11214;DHT22;5664;48.606;13.456;2023-10-31T04:06:48;20.10;77.60
11214;DHT22;5664;48.606;13.456;2023-10-31T04:09:13;20.00;77.50
11214;DHT22;5664;48.606;13.456;2023-10-31T04:11:39;20.00;77.60
11214;DHT22;5664;48.606;13.456;2023-10-31T04:14:05;20.00;77.50
11214;DHT22;5664;48.606;13.456;2023-10-31T04:16:31;20.00;77.50
11214;DHT22;5664;48.606;13.456;2023-10-31T04:18:56;20.00;77.50
11214;DHT22;5664;48.606;13.456;2023-10-31T04:21:22;19.90;78.20
11214;DHT22;5664;48.606;13.456;2023-10-31T04:23:47;20.00;77.50
11214;DHT22;5664;48.606;13.456;2023-10-31T04:26:13;19.90;77.50
11214;DHT22;5664;48.606;13.456;2023-10-31T04:28:41;19.90;77.50
11214;DHT22;5664;48.606;13.456;2023-10-31T04:31:06;19.90;77.50
11214;DHT22;5664;48.606;13.456;2023-10-31T04:33:32;19.90;77.50
11214;DHT22;5664;48.606;13.456;2023-10-31T04:35:57;19.90;77.40
11214;DHT22;5664;48.606;13.456;2023-10-31T04:38:23;19.90;77.40
11214;DHT22;5664;48.606;13.456;2023-10-31T04:40:48;19.90;77.40
11214;DHT22;5664;48.606;13.456;2023-10-31T04:43:14;19.90;77.50
11214;DHT22;5664;48.606;13.456;2023-10-31T04:45:39;19.90;77.40
11214;DHT22;5664;48.606;13.456;2023-10-31T04:48:04;19.80;77.40
11214;DHT22;5664;48.606;13.456;2023-10-31T04:50:30;19.80;77.40
11214;DHT22;5664;48.606;13.456;2023-10-31T04:52:55;19.80;77.40
11214;DHT22;5664;48.606;13.456;2023-10-31T04:55:21;19.80;77.40
11214;DHT22;5664;48.606;13.456;2023-10-31T04:57:46;19.80;77.50
11214;DHT22;5664;48.606;13.456;2023-10-31T05:00:12;19.80;77.50
11214;DHT22;5664;48.606;13.456;2023-10-31T05:02:37;19.80;77.50
11214;DHT22;5664;48.606;13.456;2023-10-31T05:05:03;19.80;77.50
11214;DHT22;5664;48.606;13.456;2023-10-31T05:07:28;19.80;77.50
11214;DHT22;5664;48.606;13.456;2023-10-31T05:09:54;19.80;77.60
11214;DHT22;5664;48.606;13.456;2023-10-31T05:12:19;19.70;77.70
11214;DHT22;5664;48.606;13.456;2023-10-31T05:14:45;19.80;77.80
11214;DHT22;5664;48.606;13.456;2023-10-31T05:17:10;19.70;77.80
11214;DHT22;5664;48.606;13.456;2023-10-31T05:19:36;19.70;77.90
11214;DHT22;5664;48.606;13.456;2023-10-31T05:22:01;19.70;77.90
11214;DHT22;5664;48.606;13.456;2023-10-31T05:24:27;19.70;77.90
11214;DHT22;5664;48.606;13.456;2023-10-31T05:26:53;19.70;78.00
11214;DHT22;5664;48.606;13.456;2023-10-31T05:29:18;19.70;77.90
11214;DHT22;5664;48.606;13.456;2023-10-31T05:31:44;19.70;77.90
11214;DHT22;5664;48.606;13.456;2023-10-31T05:34:09;19.70;78.00
11214;DHT22;5664;48.606;13.456;2023-10-31T05:36:35;19.60;78.00
11214;DHT22;5664;48.606;13.456;2023-10-31T05:39:00;19.60;77.90
11214;DHT22;5664;48.606;13.456;2023-10-31T05:41:26;19.60;77.90
11214;DHT22;5664;48.606;13.456;2023-10-31T05:43:51;19.60;77.90
11214;DHT22;5664;48.606;13.456;2023-10-31T05:46:17;19.60;78.00
11214;DHT22;5664;48.606;13.456;2023-10-31T05:48:46;19.60;78.00
11214;DHT22;5664;48.606;13.456;2023-10-31T05:51:15;19.60;78.00
11214;DHT22;5664;48.606;13.456;2023-10-31T05:53:43;19.60;78.00
11214;DHT22;5664;48.606;13.456;2023-10-31T05:56:09;19.60;78.00
11214;DHT22;5664;48.606;13.456;2023-10-31T05:58:34;19.50;77.90
11214;DHT22;5664;48.606;13.456;2023-10-31T06:01:00;19.50;77.90
11214;DHT22;5664;48.606;13.456;2023-10-31T06:03:25;19.50;77.90
11214;DHT22;5664;48.606;13.456;2023-10-31T06:05:51;19.50;77.90
11214;DHT22;5664;48.606;13.456;2023-10-31T06:08:16;19.50;77.90
11214;DHT22;5664;48.606;13.456;2023-10-31T06:10:42;19.50;77.90
11214;DHT22;5664;48.606;13.456;2023-10-31T06:13:07;19.50;78.70
11214;DHT22;5664;48.606;13.456;2023-10-31T06:15:32;19.50;77.90
11214;DHT22;5664;48.606;13.456;2023-10-31T06:17:58;19.40;77.90
11214;DHT22;5664;48.606;13.456;2023-10-31T06:20:23;19.40;77.90
11214;DHT22;5664;48.606;13.456;2023-10-31T06:22:49;19.40;78.00
11214;DHT22;5664;48.606;13.456;2023-10-31T06:25:14;19.50;78.00
11214;DHT22;5664;48.606;13.456;2023-10-31T06:27:40;19.40;77.90
11214;DHT22;5664;48.606;13.456;2023-10-31T06:30:05;19.40;77.80
11214;DHT22;5664;48.606;13.456;2023-10-31T06:32:31;19.40;77.80
11214;DHT22;5664;48.606;13.456;2023-10-31T06:34:56;19.40;77.80
11214;DHT22;5664;48.606;13.456;2023-10-31T06:37:25;19.40;77.80
11214;DHT22;5664;48.606;13.456;2023-10-31T06:39:51;19.40;77.90
11214;DHT22;5664;48.606;13.456;2023-10-31T06:42:16;19.40;77.90
11214;DHT22;5664;48.606;13.456;2023-10-31T06:44:41;19.40;78.00
11214;DHT22;5664;48.606;13.456;2023-10-31T06:47:07;19.40;77.90
11214;DHT22;5664;48.606;13.456;2023-10-31T06:49:32;19.40;77.90
11214;DHT22;5664;48.606;13.456;2023-10-31T06:51:58;19.40;77.90
11214;DHT22;5664;48.606;13.456;2023-10-31T06:54:23;19.30;77.80
11214;DHT22;5664;48.606;13.456;2023-10-31T06:56:49;19.30;77.80
11214;DHT22;5664;48.606;13.456;2023-10-31T06:59:14;19.30;77.80
11214;DHT22;5664;48.606;13.456;2023-10-31T07:01:40;19.30;77.90
11214;DHT22;5664;48.606;13.456;2023-10-31T07:04:05;19.30;77.80
11214;DHT22;5664;48.606;13.456;2023-10-31T07:06:31;19.30;77.80
11214;DHT22;5664;48.606;13.456;2023-10-31T07:08:57;19.30;77.80
11214;DHT22;5664;48.606;13.456;2023-10-31T07:11:22;19.30;77.80
11214;DHT22;5664;48.606;13.456;2023-10-31T07:13:48;19.30;77.80
11214;DHT22;5664;48.606;13.456;2023-10-31T07:16:13;19.30;77.70
11214;DHT22;5664;48.606;13.456;2023-10-31T07:18:39;19.30;77.80
11214;DHT22;5664;48.606;13.456;2023-10-31T07:21:05;19.30;77.80
11214;DHT22;5664;48.606;13.456;2023-10-31T07:23:30;19.30;78.00
11214;DHT22;5664;48.606;13.456;2023-10-31T07:25:56;19.30;78.00
11214;DHT22;5664;48.606;13.456;2023-10-31T07:28:21;19.30;78.00
11214;DHT22;5664;48.606;13.456;2023-10-31T07:30:47;19.30;78.00
11214;DHT22;5664;48.606;13.456;2023-10-31T07:33:12;19.30;78.00
11214;DHT22;5664;48.606;13.456;2023-10-31T07:35:38;19.20;78.00
11214;DHT22;5664;48.606;13.456;2023-10-31T07:38:03;19.30;78.90
11214;DHT22;5664;48.606;13.456;2023-10-31T07:40:29;19.20;78.00
11214;DHT22;5664;48.606;13.456;2023-10-31T07:42:54;19.30;78.10
11214;DHT22;5664;48.606;13.456;2023-10-31T07:45:20;19.20;78.00
11214;DHT22;5664;48.606;13.456;2023-10-31T07:47:45;19.20;78.00
11214;DHT22;5664;48.606;13.456;2023-10-31T07:50:11;19.20;78.10
11214;DHT22;5664;48.606;13.456;2023-10-31T07:52:36;19.20;78.00
11214;DHT22;5664;48.606;13.456;2023-10-31T07:55:02;19.20;78.00
11214;DHT22;5664;48.606;13.456;2023-10-31T07:57:27;19.20;78.00
11214;DHT22;5664;48.606;13.456;2023-10-31T07:59:53;19.20;78.10
11214;DHT22;5664;48.606;13.456;2023-10-31T08:02:18;19.20;78.10
11214;DHT22;5664;48.606;13.456;2023-10-31T08:04:43;19.20;78.10
11214;DHT22;5664;48.606;13.456;2023-10-31T08:07:09;19.20;78.10
11214;DHT22;5664;48.606;13.456;2023-10-31T08:09:34;19.20;78.10
11214;DHT22;5664;48.606;13.456;2023-10-31T08:12:00;19.10;78.10
11214;DHT22;5664;48.606;13.456;2023-10-31T08:14:25;19.20;78.20
11214;DHT22;5664;48.606;13.456;2023-10-31T08:16:51;19.10;78.10
11214;DHT22;5664;48.606;13.456;2023-10-31T08:19:16;19.10;78.10
11214;DHT22;5664;48.606;13.456;2023-10-31T08:21:42;19.10;78.10
11214;DHT22;5664;48.606;13.456;2023-10-31T08:24:07;19.20;78.20
11214;DHT22;5664;48.606;13.456;2023-10-31T08:26:33;19.20;78.10
11214;DHT22;5664;48.606;13.456;2023-10-31T08:28:59;19.10;78.10
11214;DHT22;5664;48.606;13.456;2023-10-31T08:31:25;19.10;78.10
11214;DHT22;5664;48.606;13.456;2023-10-31T08:33:50;19.10;78.00
11214;DHT22;5664;48.606;13.456;2023-10-31T08:36:16;19.10;78.10
11214;DHT22;5664;48.606;13.456;2023-10-31T08:38:41;19.60;78.80
11214;DHT22;5664;48.606;13.456;2023-10-31T08:41:07;19.10;78.10
11214;DHT22;5664;48.606;13.456;2023-10-31T08:43:32;19.10;78.10
11214;DHT22;5664;48.606;13.456;2023-10-31T08:45:57;19.10;78.10
11214;DHT22;5664;48.606;13.456;2023-10-31T08:48:23;19.10;78.90
11214;DHT22;5664;48.606;13.456;2023-10-31T08:50:48;19.10;78.10
11214;DHT22;5664;48.606;13.456;2023-10-31T08:53:14;19.10;78.20
11214;DHT22;5664;48.606;13.456;2023-10-31T08:55:40;19.10;78.20
11214;DHT22;5664;48.606;13.456;2023-10-31T08:58:10;19.10;78.20
11214;DHT22;5664;48.606;13.456;2023-10-31T09:00:36;19.10;78.20
11214;DHT22;5664;48.606;13.456;2023-10-31T09:03:01;19.10;78.20
11214;DHT22;5664;48.606;13.456;2023-10-31T09:05:27;19.00;78.10
11214;DHT22;5664;48.606;13.456;2023-10-31T09:07:52;19.00;78.10
11214;DHT22;5664;48.606;13.456;2023-10-31T09:10:18;19.10;78.20
11214;DHT22;5664;48.606;13.456;2023-10-31T09:12:43;19.10;78.20
11214;DHT22;5664;48.606;13.456;2023-10-31T09:15:09;19.00;78.10
11214;DHT22;5664;48.606;13.456;2023-10-31T09:17:34;19.00;78.10
11214;DHT22;5664;48.606;13.456;2023-10-31T09:20:00;19.00;78.10
11214;DHT22;5664;48.606;13.456;2023-10-31T09:22:25;19.00;78.10
11214;DHT22;5664;48.606;13.456;2023-10-31T09:24:51;19.00;78.10
11214;DHT22;5664;48.606;13.456;2023-10-31T09:27:16;19.00;78.40
11214;DHT22;5664;48.606;13.456;2023-10-31T09:29:42;18.80;78.40
11214;DHT22;5664;48.606;13.456;2023-10-31T09:32:07;19.00;78.80
11214;DHT22;5664;48.606;13.456;2023-10-31T09:34:33;19.00;78.00
11214;DHT22;5664;48.606;13.456;2023-10-31T09:36:58;19.00;78.00
11214;DHT22;5664;48.606;13.456;2023-10-31T09:39:24;19.00;78.00
11214;DHT22;5664;48.606;13.456;2023-10-31T09:41:49;19.00;78.00
11214;DHT22;5664;48.606;13.456;2023-10-31T09:44:15;19.00;78.10
11214;DHT22;5664;48.606;13.456;2023-10-31T09:46:40;18.90;78.00
11214;DHT22;5664;48.606;13.456;2023-10-31T09:49:06;18.90;78.00
11214;DHT22;5664;48.606;13.456;2023-10-31T09:51:33;18.90;78.00
11214;DHT22;5664;48.606;13.456;2023-10-31T09:53:58;18.90;78.00
11214;DHT22;5664;48.606;13.456;2023-10-31T09:56:24;18.90;78.00
11214;DHT22;5664;48.606;13.456;2023-10-31T09:58:50;18.90;78.00
11214;DHT22;5664;48.606;13.456;2023-10-31T10:01:16;18.90;78.10
11214;DHT22;5664;48.606;13.456;2023-10-31T10:03:42;19.40;79.00
11214;DHT22;5664;48.606;13.456;2023-10-31T10:06:08;18.90;78.00
11214;DHT22;5664;48.606;13.456;2023-10-31T10:08:36;18.90;78.00
11214;DHT22;5664;48.606;13.456;2023-10-31T10:11:02;18.90;78.00
11214;DHT22;5664;48.606;13.456;2023-10-31T10:13:30;18.90;78.00
11214;DHT22;5664;48.606;13.456;2023-10-31T10:15:56;18.90;78.00
11214;DHT22;5664;48.606;13.456;2023-10-31T10:18:28;18.90;78.00
11214;DHT22;5664;48.606;13.456;2023-10-31T10:20:57;18.90;78.00
11214;DHT22;5664;48.606;13.456;2023-10-31T10:23:23;18.90;78.00
11214;DHT22;5664;48.606;13.456;2023-10-31T10:25:49;18.90;78.00
11214;DHT22;5664;48.606;13.456;2023-10-31T10:28:15;18.90;78.00
11214;DHT22;5664;48.606;13.456;2023-10-31T10:30:40;18.90;78.00
11214;DHT22;5664;48.606;13.456;2023-10-31T10:33:06;18.90;78.00
11214;DHT22;5664;48.606;13.456;2023-10-31T10:35:32;18.90;78.00
11214;DHT22;5664;48.606;13.456;2023-10-31T10:37:57;18.90;78.00
11214;DHT22;5664;48.606;13.456;2023-10-31T10:40:23;18.90;78.00
11214;DHT22;5664;48.606;13.456;2023-10-31T10:42:50;18.90;78.00
11214;DHT22;5664;48.606;13.456;2023-10-31T10:45:22;18.80;78.00
11214;DHT22;5664;48.606;13.456;2023-10-31T10:47:51;18.80;78.00
11214;DHT22;5664;48.606;13.456;2023-10-31T10:50:18;18.80;78.00
11214;DHT22;5664;48.606;13.456;2023-10-31T10:52:48;18.80;78.00
11214;DHT22;5664;48.606;13.456;2023-10-31T10:55:21;18.90;78.10
11214;DHT22;5664;48.606;13.456;2023-10-31T10:57:52;18.80;78.00
11214;DHT22;5664;48.606;13.456;2023-10-31T11:00:20;18.90;78.10
11214;DHT22;5664;48.606;13.456;2023-10-31T11:02:51;18.90;78.00
11214;DHT22;5664;48.606;13.456;2023-10-31T11:05:17;18.80;78.00
11214;DHT22;5664;48.606;13.456;2023-10-31T11:07:43;18.90;78.00
11214;DHT22;5664;48.606;13.456;2023-10-31T11:10:09;18.80;78.00
11214;DHT22;5664;48.606;13.456;2023-10-31T11:12:35;18.80;78.00
11214;DHT22;5664;48.606;13.456;2023-10-31T11:15:02;18.80;78.00
11214;DHT22;5664;48.606;13.456;2023-10-31T11:17:29;18.80;78.00
11214;DHT22;5664;48.606;13.456;2023-10-31T11:19:55;18.80;78.00
11214;DHT22;5664;48.606;13.456;2023-10-31T11:22:21;18.80;78.00
11214;DHT22;5664;48.606;13.456;2023-10-31T11:24:48;18.80;78.00
11214;DHT22;5664;48.606;13.456;2023-10-31T11:27:14;18.80;78.00
11214;DHT22;5664;48.606;13.456;2023-10-31T11:29:39;18.70;77.90
11214;DHT22;5664;48.606;13.456;2023-10-31T11:32:08;18.80;78.00
11214;DHT22;5664;48.606;13.456;2023-10-31T11:34:34;18.70;78.00
11214;DHT22;5664;48.606;13.456;2023-10-31T11:40:14;18.70;77.90
11214;DHT22;5664;48.606;13.456;2023-10-31T11:42:40;18.70;78.00
11214;DHT22;5664;48.606;13.456;2023-10-31T11:45:09;18.70;78.00
11214;DHT22;5664;48.606;13.456;2023-10-31T11:47:50;18.70;78.00
11214;DHT22;5664;48.606;13.456;2023-10-31T11:50:16;18.70;78.00
11214;DHT22;5664;48.606;13.456;2023-10-31T11:52:42;18.70;78.70
11214;DHT22;5664;48.606;13.456;2023-10-31T11:55:11;18.70;78.00
11214;DHT22;5664;48.606;13.456;2023-10-31T11:57:37;18.70;78.00
11214;DHT22;5664;48.606;13.456;2023-10-31T12:00:03;18.70;78.00
11214;DHT22;5664;48.606;13.456;2023-10-31T12:02:30;18.70;78.00
11214;DHT22;5664;48.606;13.456;2023-10-31T12:05:08;18.70;78.00
11214;DHT22;5664;48.606;13.456;2023-10-31T12:07:46;18.70;78.00
11214;DHT22;5664;48.606;13.456;2023-10-31T12:10:12;18.70;78.00
11214;DHT22;5664;48.606;13.456;2023-10-31T12:12:37;18.70;78.00
11214;DHT22;5664;48.606;13.456;2023-10-31T12:15:06;18.70;78.10
11214;DHT22;5664;48.606;13.456;2023-10-31T12:17:33;18.70;78.00
11214;DHT22;5664;48.606;13.456;2023-10-31T12:20:02;18.60;78.00
11214;DHT22;5664;48.606;13.456;2023-10-31T12:22:28;18.60;78.00
11214;DHT22;5664;48.606;13.456;2023-10-31T12:24:59;18.70;78.30
11214;DHT22;5664;48.606;13.456;2023-10-31T12:27:25;18.60;78.00
11214;DHT22;5664;48.606;13.456;2023-10-31T12:29:59;18.60;78.00
11214;DHT22;5664;48.606;13.456;2023-10-31T12:32:25;18.60;78.00
11214;DHT22;5664;48.606;13.456;2023-10-31T12:34:50;18.70;78.10
11214;DHT22;5664;48.606;13.456;2023-10-31T12:37:16;18.70;78.00
11214;DHT22;5664;48.606;13.456;2023-10-31T12:39:41;18.70;78.90
11214;DHT22;5664;48.606;13.456;2023-10-31T12:42:07;18.70;78.10
11214;DHT22;5664;48.606;13.456;2023-10-31T12:44:32;18.60;78.00
11214;DHT22;5664;48.606;13.456;2023-10-31T12:46:59;18.60;78.00
11214;DHT22;5664;48.606;13.456;2023-10-31T12:49:25;18.70;78.00
11214;DHT22;5664;48.606;13.456;2023-10-31T12:51:57;18.60;78.00
11214;DHT22;5664;48.606;13.456;2023-10-31T12:54:32;18.60;78.00
11214;DHT22;5664;48.606;13.456;2023-10-31T12:57:03;18.60;78.00
11214;DHT22;5664;48.606;13.456;2023-10-31T12:59:30;18.60;78.00
11214;DHT22;5664;48.606;13.456;2023-10-31T13:01:55;18.60;78.00
11214;DHT22;5664;48.606;13.456;2023-10-31T13:04:27;18.60;78.00
11214;DHT22;5664;48.606;13.456;2023-10-31T13:07:09;18.60;77.90
11214;DHT22;5664;48.606;13.456;2023-10-31T13:09:35;18.60;78.80
11214;DHT22;5664;48.606;13.456;2023-10-31T13:12:05;18.60;78.00
11214;DHT22;5664;48.606;13.456;2023-10-31T13:14:31;18.60;78.00
11214;DHT22;5664;48.606;13.456;2023-10-31T13:16:56;18.60;78.00
11214;DHT22;5664;48.606;13.456;2023-10-31T13:19:22;18.60;78.00
11214;DHT22;5664;48.606;13.456;2023-10-31T13:21:47;18.60;78.80
11214;DHT22;5664;48.606;13.456;2023-10-31T13:24:13;18.60;77.90
11214;DHT22;5664;48.606;13.456;2023-10-31T13:26:38;18.60;77.90
11214;DHT22;5664;48.606;13.456;2023-10-31T13:29:04;18.60;77.90
11214;DHT22;5664;48.606;13.456;2023-10-31T13:31:30;18.60;77.90
11214;DHT22;5664;48.606;13.456;2023-10-31T13:33:55;18.60;77.90
11214;DHT22;5664;48.606;13.456;2023-10-31T13:36:20;18.60;78.00
11214;DHT22;5664;48.606;13.456;2023-10-31T13:38:46;18.50;77.90
11214;DHT22;5664;48.606;13.456;2023-10-31T13:41:13;18.50;78.30
11214;DHT22;5664;48.606;13.456;2023-10-31T13:43:39;18.60;78.00
11214;DHT22;5664;48.606;13.456;2023-10-31T13:46:04;18.60;78.00
11214;DHT22;5664;48.606;13.456;2023-10-31T13:48:31;18.50;78.00
11214;DHT22;5664;48.606;13.456;2023-10-31T13:50:56;18.50;77.90
11214;DHT22;5664;48.606;13.456;2023-10-31T13:53:22;18.50;78.00
11214;DHT22;5664;48.606;13.456;2023-10-31T13:55:47;18.50;77.90
11214;DHT22;5664;48.606;13.456;2023-10-31T13:58:14;18.50;77.90
11214;DHT22;5664;48.606;13.456;2023-10-31T14:00:39;18.50;77.90
11214;DHT22;5664;48.606;13.456;2023-10-31T14:03:05;18.50;77.90
11214;DHT22;5664;48.606;13.456;2023-10-31T14:05:30;18.50;77.90
11214;DHT22;5664;48.606;13.456;2023-10-31T14:07:56;18.50;77.90
11214;DHT22;5664;48.606;13.456;2023-10-31T14:10:22;18.50;77.90
11214;DHT22;5664;48.606;13.456;2023-10-31T14:12:48;18.50;78.00
11214;DHT22;5664;48.606;13.456;2023-10-31T14:15:14;18.50;78.00
11214;DHT22;5664;48.606;13.456;2023-10-31T14:17:39;18.50;78.00
11214;DHT22;5664;48.606;13.456;2023-10-31T14:20:05;18.50;78.10
11214;DHT22;5664;48.606;13.456;2023-10-31T14:22:31;18.50;78.00
11214;DHT22;5664;48.606;13.456;2023-10-31T14:24:56;18.40;78.00
11214;DHT22;5664;48.606;13.456;2023-10-31T14:27:22;18.50;78.00
11214;DHT22;5664;48.606;13.456;2023-10-31T14:29:47;18.50;78.00
11214;DHT22;5664;48.606;13.456;2023-10-31T14:32:13;18.50;78.10
11214;DHT22;5664;48.606;13.456;2023-10-31T14:34:38;18.50;78.00
11214;DHT22;5664;48.606;13.456;2023-10-31T14:37:04;18.40;77.30
11214;DHT22;5664;48.606;13.456;2023-10-31T14:39:31;18.40;78.10
11214;DHT22;5664;48.606;13.456;2023-10-31T14:41:57;18.40;78.10
11214;DHT22;5664;48.606;13.456;2023-10-31T14:44:22;18.40;78.10
11214;DHT22;5664;48.606;13.456;2023-10-31T14:46:47;18.40;78.10
11214;DHT22;5664;48.606;13.456;2023-10-31T14:49:13;18.40;78.90
11214;DHT22;5664;48.606;13.456;2023-10-31T14:51:39;18.40;78.10
11214;DHT22;5664;48.606;13.456;2023-10-31T14:54:07;18.40;78.10
11214;DHT22;5664;48.606;13.456;2023-10-31T14:56:32;18.40;78.10
11214;DHT22;5664;48.606;13.456;2023-10-31T14:59:00;18.40;78.10
11214;DHT22;5664;48.606;13.456;2023-10-31T15:01:27;18.40;78.10
11214;DHT22;5664;48.606;13.456;2023-10-31T15:03:53;18.30;78.00
11214;DHT22;5664;48.606;13.456;2023-10-31T15:06:20;18.30;78.00
11214;DHT22;5664;48.606;13.456;2023-10-31T15:08:45;18.30;78.00
11214;DHT22;5664;48.606;13.456;2023-10-31T15:11:11;18.30;78.90
11214;DHT22;5664;48.606;13.456;2023-10-31T15:13:37;18.30;78.10
11214;DHT22;5664;48.606;13.456;2023-10-31T15:16:02;18.30;78.10
11214;DHT22;5664;48.606;13.456;2023-10-31T15:18:28;18.30;78.10
11214;DHT22;5664;48.606;13.456;2023-10-31T15:20:53;18.30;78.00
11214;DHT22;5664;48.606;13.456;2023-10-31T15:23:23;18.30;78.10
11214;DHT22;5664;48.606;13.456;2023-10-31T15:25:48;18.20;78.10